Airfield :
LOGIN :

Register | Disclaimer

   EN    FR    IT 

 










Legend :    VFR   Marginal VFR   IFR   Intensive IFR   Very Intensive IFR
Visi :
Ceiling :
>= 8 km
>= 3000ft
5 to 8 km
1000 to 3000 ft
1500m to 5 km
500 to 1000 ft
800 to 1500m
200 to 500 ft
< 800m
< 200 ft
Symbols :   Thunderstorms  Fog  Heavy snow  Heavy precipitations  Wind > 20 kt
SIGMETs :     Misc.  Thunderstorms  Icing  Turbulence  Mountain Waves  Volcanic Ashes






- Airport Elevation : 348 ft
- IATA code : STN


EGSS - London Stansted

CURRENT METAR :
  • 171920Z AUTO 16006KT 9999 FEW034 BKN043 18/15 Q1014

EXPIRED METARs :
  • 171850Z AUTO 15006KT 9999 BKN033 OVC044 18/15 Q1013
  • 171820Z AUTO 17004KT 9999 BKN031 19/14 Q1013
  • 171750Z AUTO 16005KT 130V200 9999 BKN036 BKN045 19/14 Q1013
  • 171720Z AUTO 17005KT 140V200 9999 BKN037 OVC046 19/13 Q1013
  • 171650Z AUTO 20005KT 9999 SCT038 20/13 Q1013

TAF TAF EGSS
Valid from the 17 at 18:00 until the 19 at 00:00 UTC


171703Z 1718/1824 22006KT 9999 SCT025
BECMG 1721/1724 12010KT
TEMPO 1722/1808 8000
PROB30
TEMPO 1801/1807 3000 BR
ATIS : +44 1279 669 325



MET'MAP, your aeronautical weather chart ! - Copyright ORBIFLY December 2007 - Disclaimer

ORBIFLY MET'MAP TEAM :

Programming & Development : Alexandra Zaïnal
Concept & original design : Baudouin d'Aumeries
Assistance for programming : Marc-Olivier Méhu
Technical & hardware support : Manuel Goepfert

Contact : metmap@orbifly.com




SOURCES & CREDITS :

   NOAA